createdAt,value
2018-07-20T00:02:10.811Z,14.40
2018-07-20T00:04:41.924Z,14.30
2018-07-20T00:07:13.336Z,14.37
2018-07-20T00:09:44.206Z,14.43
2018-07-20T00:12:15.220Z,14.83
2018-07-20T00:14:46.247Z,15.20
2018-07-20T00:17:17.302Z,17.20
2018-07-20T00:19:48.518Z,17.23
2018-07-20T00:22:19.240Z,16.67
2018-07-20T00:24:50.271Z,16.60
2018-07-20T00:27:21.031Z,16.10
2018-07-20T00:29:51.825Z,18.20
2018-07-20T00:32:22.731Z,19.27
2018-07-20T00:34:53.492Z,21.07
2018-07-20T00:37:24.263Z,22.80
2018-07-20T00:39:55.050Z,18.73
2018-07-20T00:42:26.025Z,18.73
2018-07-20T00:44:57.315Z,18.67
2018-07-20T00:47:28.273Z,17.33
2018-07-20T00:49:59.147Z,21.00
2018-07-20T00:52:29.950Z,21.43
2018-07-20T00:55:00.971Z,21.43
2018-07-20T00:57:32.063Z,23.83
2018-07-20T01:00:02.915Z,25.50
2018-07-20T01:02:33.801Z,30.30
2018-07-20T01:05:04.647Z,28.20
2018-07-20T01:07:35.456Z,27.47
2018-07-20T01:10:06.536Z,28.10
2018-07-20T01:12:37.369Z,27.53
2018-07-20T01:15:08.196Z,27.97
2018-07-20T01:17:39.249Z,26.43
2018-07-20T01:20:10.247Z,26.53
2018-07-20T01:22:41.335Z,26.07
2018-07-20T01:25:12.406Z,27.37
2018-07-20T01:27:43.337Z,25.67
2018-07-20T01:30:14.427Z,21.40
2018-07-20T01:32:45.270Z,20.60
2018-07-20T01:35:16.158Z,20.17
2018-07-20T01:37:47.000Z,17.90
2018-07-20T01:40:17.819Z,17.37
2018-07-20T01:42:48.830Z,17.17
2018-07-20T01:45:19.644Z,17.43
2018-07-20T01:47:50.671Z,18.23
2018-07-20T01:50:21.491Z,18.70
2018-07-20T01:52:52.438Z,20.27
2018-07-20T01:55:23.329Z,24.00
2018-07-20T01:57:54.183Z,30.03
2018-07-20T02:00:25.078Z,25.63
2018-07-20T02:02:55.906Z,25.27
2018-07-20T02:05:26.822Z,23.27
2018-07-20T02:07:57.733Z,24.30
2018-07-20T02:10:29.394Z,25.17
2018-07-20T02:13:00.250Z,25.10
2018-07-20T02:15:31.010Z,26.43
2018-07-20T02:18:01.883Z,29.43
2018-07-20T02:20:33.015Z,28.53
2018-07-20T02:23:03.947Z,25.23
2018-07-20T02:25:35.079Z,24.83
2018-07-20T02:28:05.857Z,24.63
2018-07-20T02:30:36.876Z,24.07
2018-07-20T02:33:07.821Z,24.43
2018-07-20T02:35:38.740Z,23.67
2018-07-20T02:38:09.667Z,22.93
2018-07-20T02:40:40.420Z,21.30
2018-07-20T02:43:11.465Z,21.13
2018-07-20T02:45:42.323Z,21.43
2018-07-20T02:48:13.314Z,21.10
2018-07-20T02:50:44.318Z,20.80
2018-07-20T02:53:15.099Z,21.43
2018-07-20T02:55:45.789Z,20.37
2018-07-20T02:58:16.893Z,19.40
2018-07-20T03:00:47.816Z,18.90
2018-07-20T03:03:18.555Z,18.27
2018-07-20T03:05:49.504Z,16.70
2018-07-20T03:08:20.285Z,17.80
2018-07-20T03:10:51.175Z,17.13
2018-07-20T03:13:21.912Z,17.37
2018-07-20T03:15:52.762Z,16.87
2018-07-20T03:18:23.636Z,16.27
2018-07-20T03:20:54.417Z,16.33
2018-07-20T03:23:25.483Z,16.20
2018-07-20T03:25:56.308Z,15.60
2018-07-20T03:28:27.454Z,15.20
2018-07-20T03:30:58.299Z,16.17
2018-07-20T03:33:29.199Z,14.30
2018-07-20T03:35:59.952Z,14.03
2018-07-20T03:38:30.775Z,14.93
2018-07-20T03:41:01.604Z,15.80
2018-07-20T03:43:32.772Z,16.60
2018-07-20T03:46:03.551Z,16.20
2018-07-20T03:48:34.428Z,19.10
2018-07-20T03:51:05.213Z,16.10
2018-07-20T03:53:36.105Z,16.63
2018-07-20T03:56:06.841Z,15.80
2018-07-20T03:58:37.711Z,15.67
2018-07-20T04:01:08.525Z,17.27
2018-07-20T04:03:39.321Z,18.27
2018-07-20T04:06:10.060Z,20.70
2018-07-20T04:08:40.930Z,24.37
2018-07-20T04:11:11.733Z,24.57
2018-07-20T04:13:42.537Z,23.60
2018-07-20T04:16:13.462Z,22.13
2018-07-20T04:18:44.354Z,23.03
2018-07-20T04:21:15.231Z,18.93
2018-07-20T04:23:46.116Z,18.67
2018-07-20T04:26:17.252Z,17.57
2018-07-20T04:28:48.508Z,18.93
2018-07-20T04:31:19.789Z,22.67
2018-07-20T04:33:50.722Z,24.60
2018-07-20T04:36:21.520Z,26.40
2018-07-20T04:38:52.386Z,24.17
2018-07-20T04:41:23.353Z,23.63
2018-07-20T04:43:54.229Z,21.63
2018-07-20T04:46:25.294Z,22.63
2018-07-20T04:48:56.156Z,22.13
2018-07-20T04:51:27.049Z,21.53
2018-07-20T04:53:58.015Z,21.47
2018-07-20T04:56:28.978Z,19.67
2018-07-20T04:58:59.865Z,20.17
2018-07-20T05:01:30.711Z,21.33
2018-07-20T05:04:01.637Z,22.40
2018-07-20T05:06:32.572Z,27.50
2018-07-20T05:09:03.722Z,30.27
2018-07-20T05:11:34.614Z,26.23
2018-07-20T05:14:05.450Z,26.00
2018-07-20T05:16:36.446Z,27.37
2018-07-20T05:19:07.203Z,24.87
2018-07-20T05:21:38.003Z,25.07
2018-07-20T05:24:08.914Z,30.53
2018-07-20T05:26:39.789Z,28.23
2018-07-20T05:29:10.523Z,26.00
2018-07-20T05:31:41.322Z,27.33
2018-07-20T05:34:12.000Z,24.33
2018-07-20T05:36:42.861Z,24.03
2018-07-20T05:39:13.929Z,24.17
2018-07-20T05:41:44.843Z,22.13
2018-07-20T05:44:15.681Z,21.23
2018-07-20T05:46:46.519Z,20.63
2018-07-20T05:49:17.472Z,20.83
2018-07-20T05:51:48.661Z,27.60
2018-07-20T05:54:19.605Z,26.37
2018-07-20T05:56:50.582Z,23.80
2018-07-20T05:59:21.857Z,23.73
2018-07-20T06:01:52.631Z,24.83
2018-07-20T06:04:23.487Z,22.50
2018-07-20T06:06:54.320Z,21.87
2018-07-20T06:09:25.141Z,20.70
2018-07-20T06:11:56.157Z,19.03
2018-07-20T06:14:26.923Z,18.77
2018-07-20T06:16:57.806Z,16.33
2018-07-20T06:19:28.769Z,16.17
2018-07-20T06:21:59.578Z,15.83
2018-07-20T06:24:30.514Z,15.03
2018-07-20T06:27:01.264Z,15.50
2018-07-20T06:29:32.272Z,15.03
2018-07-20T06:32:03.146Z,15.10
2018-07-20T06:34:34.171Z,14.90
2018-07-20T06:37:04.996Z,14.53
2018-07-20T06:39:35.852Z,12.90
2018-07-20T06:42:06.871Z,12.50
2018-07-20T06:44:37.701Z,11.80
2018-07-20T06:47:08.804Z,11.03
2018-07-20T06:49:39.590Z,9.40
2018-07-20T06:52:10.609Z,10.33
2018-07-20T06:54:41.567Z,13.77
2018-07-20T06:57:12.336Z,16.00
2018-07-20T06:59:43.246Z,16.80
2018-07-20T07:02:14.380Z,19.50
2018-07-20T07:04:45.142Z,21.27
2018-07-20T07:07:16.367Z,22.07
2018-07-20T07:09:47.222Z,23.17
2018-07-20T07:12:18.072Z,21.83
2018-07-20T07:14:48.970Z,21.67
2018-07-20T07:17:19.091Z,21.70
2018-07-20T07:19:49.895Z,24.70
2018-07-20T07:22:20.752Z,28.33
2018-07-20T07:24:51.573Z,28.87
2018-07-20T07:27:22.451Z,24.93
2018-07-20T07:29:53.304Z,24.63
2018-07-20T07:32:24.486Z,22.80
2018-07-20T07:34:55.705Z,20.17
2018-07-20T07:37:26.639Z,19.93
2018-07-20T07:39:57.488Z,21.80
2018-07-20T07:42:28.264Z,33.57
2018-07-20T07:44:59.433Z,41.00
2018-07-20T07:47:30.417Z,60.83
2018-07-20T07:50:01.742Z,55.50
2018-07-20T07:52:32.637Z,38.80
2018-07-20T07:55:03.430Z,36.23
2018-07-20T07:57:34.209Z,31.83
2018-07-20T08:00:05.880Z,27.63
2018-07-20T08:02:36.878Z,28.47
2018-07-20T08:05:07.976Z,31.77
2018-07-20T08:07:39.002Z,38.93
2018-07-20T08:10:09.971Z,46.77
2018-07-20T08:12:40.879Z,33.73
2018-07-20T08:15:11.865Z,36.30
2018-07-20T08:17:42.749Z,30.57
2018-07-20T08:20:13.654Z,23.60
2018-07-20T08:22:44.822Z,21.57
2018-07-20T08:25:15.823Z,22.90
2018-07-20T08:27:46.887Z,24.20
2018-07-20T08:30:17.697Z,23.07
2018-07-20T08:32:48.594Z,22.87
2018-07-20T08:35:19.521Z,20.83
2018-07-20T08:37:50.467Z,20.00
2018-07-20T08:40:21.411Z,20.30
2018-07-20T08:42:52.654Z,20.23
2018-07-20T08:45:23.521Z,20.90
2018-07-20T08:47:55.290Z,21.00
2018-07-20T08:50:26.052Z,20.30
2018-07-20T08:52:56.853Z,21.73
2018-07-20T08:55:27.710Z,23.23
2018-07-20T08:57:58.555Z,21.43
2018-07-20T09:00:29.401Z,21.70
2018-07-20T09:03:00.125Z,25.93
2018-07-20T09:05:33.719Z,18.77
2018-07-20T09:08:05.003Z,15.13
2018-07-20T09:10:35.850Z,14.27
2018-07-20T09:13:06.730Z,15.17
2018-07-20T09:15:37.545Z,13.73
2018-07-20T09:18:09.589Z,13.13
2018-07-20T09:20:40.480Z,11.83
2018-07-20T09:23:11.860Z,12.33
2018-07-20T09:25:42.702Z,12.23
2018-07-20T09:28:13.531Z,9.77
2018-07-20T09:30:44.436Z,9.93
2018-07-20T09:33:15.214Z,9.33
2018-07-20T09:35:45.916Z,9.27
2018-07-20T09:38:16.770Z,8.50
2018-07-20T09:40:47.690Z,8.10
2018-07-20T09:43:18.527Z,7.70
2018-07-20T09:45:49.308Z,8.40
2018-07-20T09:48:20.126Z,7.90
2018-07-20T09:50:51.189Z,7.50
2018-07-20T09:53:22.010Z,7.40
2018-07-20T09:55:52.933Z,8.00
2018-07-20T09:58:23.752Z,8.50
2018-07-20T10:00:54.570Z,8.63
2018-07-20T10:03:25.576Z,8.57
2018-07-20T10:05:56.537Z,8.70
2018-07-20T10:08:27.611Z,8.53
2018-07-20T10:10:58.378Z,8.50
2018-07-20T10:13:29.318Z,8.07
2018-07-20T10:16:00.210Z,8.90
2018-07-20T10:18:31.010Z,8.70
2018-07-20T10:21:01.873Z,7.67
2018-07-20T10:23:33.009Z,7.87
2018-07-20T10:26:03.951Z,7.87
2018-07-20T10:28:34.747Z,8.20
2018-07-20T10:31:05.765Z,7.53
2018-07-20T10:33:36.847Z,7.47
2018-07-20T10:36:07.660Z,8.00
2018-07-20T10:38:38.290Z,7.60
2018-07-20T10:41:09.566Z,7.97
2018-07-20T10:43:40.288Z,6.93
2018-07-20T10:46:11.106Z,7.47
2018-07-20T10:48:42.355Z,7.20
2018-07-20T10:51:13.217Z,6.30
2018-07-20T10:53:44.630Z,8.00
2018-07-20T10:56:15.887Z,8.43
2018-07-20T10:58:46.792Z,8.60
2018-07-20T11:01:17.740Z,7.67
2018-07-20T11:03:48.707Z,7.50
2018-07-20T11:06:19.470Z,7.80
2018-07-20T11:08:50.499Z,8.20
2018-07-20T11:11:21.287Z,7.67
2018-07-20T11:13:52.122Z,8.67
2018-07-20T11:16:23.141Z,10.20
2018-07-20T11:18:53.857Z,7.20
2018-07-20T11:21:24.944Z,6.90
2018-07-20T11:23:55.723Z,6.70
2018-07-20T11:26:26.626Z,5.90
2018-07-20T11:28:57.445Z,5.57
2018-07-20T11:31:28.360Z,5.73
2018-07-20T11:33:59.257Z,5.40
2018-07-20T11:36:29.984Z,4.77
2018-07-20T11:39:00.916Z,5.33
2018-07-20T11:41:31.836Z,4.83
2018-07-20T11:44:02.720Z,5.07
2018-07-20T11:46:33.505Z,5.10
2018-07-20T11:49:04.494Z,5.37
2018-07-20T11:51:35.208Z,4.80
2018-07-20T11:54:05.962Z,5.30
2018-07-20T11:56:37.041Z,4.77
2018-07-20T11:59:07.735Z,5.00
2018-07-20T12:01:38.413Z,4.80
2018-07-20T12:04:09.398Z,4.57
2018-07-20T12:06:40.132Z,4.70
2018-07-20T12:09:12.542Z,4.50
2018-07-20T12:11:43.481Z,5.57
2018-07-20T12:14:14.447Z,5.93
2018-07-20T12:16:45.235Z,6.20
2018-07-20T12:19:15.872Z,5.90
2018-07-20T12:21:46.597Z,5.53
2018-07-20T12:24:17.321Z,5.57
2018-07-20T12:26:48.221Z,6.07
2018-07-20T12:29:19.607Z,5.50
2018-07-20T12:31:50.784Z,5.30
2018-07-20T12:34:22.059Z,6.47
2018-07-20T12:36:52.979Z,5.40
2018-07-20T12:39:24.040Z,4.90
2018-07-20T12:41:54.133Z,5.23
2018-07-20T12:44:25.282Z,5.20
2018-07-20T12:46:56.028Z,5.10
2018-07-20T12:49:27.125Z,4.80
2018-07-20T12:51:58.615Z,5.13
2018-07-20T12:54:29.378Z,4.93
2018-07-20T12:57:00.117Z,5.97
2018-07-20T12:59:33.835Z,5.27
2018-07-20T13:02:05.149Z,5.30
2018-07-20T13:04:35.909Z,5.87
2018-07-20T13:07:07.293Z,5.30
2018-07-20T13:09:38.125Z,5.70
2018-07-20T13:12:09.201Z,5.57
2018-07-20T13:14:40.022Z,5.37
2018-07-20T13:17:10.923Z,5.17
2018-07-20T13:19:42.137Z,5.20
2018-07-20T13:22:12.860Z,5.43
2018-07-20T13:24:44.366Z,5.30
2018-07-20T13:27:15.456Z,5.50
2018-07-20T13:29:46.364Z,5.60
2018-07-20T13:32:17.135Z,6.07
2018-07-20T13:34:47.943Z,7.20
2018-07-20T13:37:18.802Z,6.93
2018-07-20T13:39:49.564Z,6.80
2018-07-20T13:42:20.390Z,7.10
2018-07-20T13:44:51.023Z,7.80
2018-07-20T13:47:21.874Z,7.03
2018-07-20T13:49:52.671Z,7.37
2018-07-20T13:52:23.838Z,7.97
2018-07-20T13:54:54.470Z,7.50
2018-07-20T13:57:25.231Z,7.57
2018-07-20T13:59:55.925Z,6.93
2018-07-20T14:02:26.606Z,7.20
2018-07-20T14:04:57.367Z,7.03
2018-07-20T14:07:28.241Z,7.63
2018-07-20T14:09:58.980Z,6.53
2018-07-20T14:12:29.646Z,6.83
2018-07-20T14:15:00.318Z,7.73
2018-07-20T14:17:31.169Z,8.17
2018-07-20T14:20:02.296Z,7.07
2018-07-20T14:22:33.637Z,6.43
2018-07-20T14:25:04.633Z,7.30
2018-07-20T14:27:35.293Z,6.13
2018-07-20T14:30:06.531Z,6.03
2018-07-20T14:32:37.280Z,6.07
2018-07-20T14:35:08.074Z,5.57
2018-07-20T14:37:38.821Z,6.03
2018-07-20T14:40:10.019Z,5.40
2018-07-20T14:42:40.954Z,4.97
2018-07-20T14:45:12.031Z,5.10
2018-07-20T14:47:42.873Z,5.60
2018-07-20T14:50:13.606Z,5.47
2018-07-20T14:52:44.351Z,5.70
2018-07-20T14:55:15.010Z,5.90
2018-07-20T14:57:45.914Z,6.10
2018-07-20T15:00:16.667Z,5.40
2018-07-20T15:02:47.470Z,5.57
2018-07-20T15:05:18.221Z,5.17
2018-07-20T15:07:53.767Z,5.83
2018-07-20T15:10:32.315Z,5.30
2018-07-20T15:13:08.713Z,5.10
2018-07-20T15:15:39.973Z,5.43
2018-07-20T15:18:10.795Z,4.50
2018-07-20T15:20:41.802Z,5.47
2018-07-20T15:23:12.968Z,5.07
2018-07-20T15:26:02.857Z,6.00
2018-07-20T15:28:35.269Z,6.20
2018-07-20T15:31:06.716Z,6.03
2018-07-20T15:33:37.665Z,5.53
2018-07-20T15:36:10.146Z,5.33
2018-07-20T15:38:40.842Z,5.53
2018-07-20T15:41:11.852Z,5.67
2018-07-20T15:43:43.361Z,5.00
2018-07-20T15:46:14.134Z,5.20
2018-07-20T15:48:44.998Z,5.60
2018-07-20T15:51:15.784Z,5.50
2018-07-20T15:53:46.675Z,5.30
2018-07-20T15:56:17.615Z,5.73
2018-07-20T15:58:48.258Z,5.33
2018-07-20T16:01:19.033Z,5.70
2018-07-20T16:03:51.218Z,5.73
2018-07-20T16:06:21.993Z,5.40
2018-07-20T16:08:53.106Z,6.27
2018-07-20T16:11:23.865Z,6.27
2018-07-20T16:13:54.880Z,6.03
2018-07-20T16:16:25.577Z,6.10
2018-07-20T16:18:56.305Z,5.30
2018-07-20T16:21:26.993Z,5.90
2018-07-20T16:23:57.765Z,5.80
2018-07-20T16:26:28.569Z,6.10
2018-07-20T16:28:58.588Z,5.90
2018-07-20T16:31:29.565Z,6.10
2018-07-20T16:34:00.334Z,5.90
2018-07-20T16:36:31.285Z,5.93
2018-07-20T16:39:02.122Z,5.63
2018-07-20T16:41:32.945Z,6.50
2018-07-20T16:44:03.716Z,6.50
2018-07-20T16:46:34.514Z,6.43
2018-07-20T16:49:05.331Z,6.33
2018-07-20T16:51:36.320Z,5.87
2018-07-20T16:54:07.286Z,6.20
2018-07-20T16:56:39.144Z,7.10
2018-07-20T16:59:10.090Z,7.37
2018-07-20T17:01:40.911Z,7.50
2018-07-20T17:04:11.638Z,7.50
2018-07-20T17:06:42.414Z,7.13
2018-07-20T17:09:13.611Z,7.70
2018-07-20T17:11:44.654Z,7.40
2018-07-20T17:14:14.695Z,7.80
2018-07-20T17:16:45.453Z,8.40
2018-07-20T17:19:16.466Z,7.87
2018-07-20T17:21:47.778Z,8.33
2018-07-20T17:24:18.646Z,8.23
2018-07-20T17:26:49.460Z,8.57
2018-07-20T17:29:20.611Z,8.60
2018-07-20T17:31:51.713Z,9.10
2018-07-20T17:34:22.489Z,8.50
2018-07-20T17:36:53.785Z,8.47
2018-07-20T17:39:24.926Z,9.73
2018-07-20T17:41:55.947Z,9.70
2018-07-20T17:44:26.803Z,10.37
2018-07-20T17:46:57.632Z,10.33
2018-07-20T17:49:28.299Z,11.90
2018-07-20T17:51:59.128Z,12.23
2018-07-20T17:54:29.857Z,13.60
2018-07-20T17:57:00.579Z,14.63
2018-07-20T17:59:31.549Z,14.17
2018-07-20T18:02:02.397Z,16.67
2018-07-20T18:04:33.162Z,11.50
2018-07-20T18:07:03.940Z,16.43
2018-07-20T18:09:34.915Z,15.90
2018-07-20T18:12:06.166Z,14.60
2018-07-20T18:14:36.927Z,13.90
2018-07-20T18:17:07.702Z,8.70
2018-07-20T18:19:38.546Z,9.60
2018-07-20T18:22:09.530Z,9.70
2018-07-20T18:24:40.302Z,9.83
2018-07-20T18:27:11.166Z,11.50
2018-07-20T18:29:41.781Z,13.60
2018-07-20T18:32:12.862Z,13.20
2018-07-20T18:34:43.709Z,12.90
2018-07-20T18:37:14.497Z,13.17
2018-07-20T18:39:45.435Z,12.73
2018-07-20T18:42:16.729Z,13.40
2018-07-20T18:44:47.477Z,13.10
2018-07-20T18:47:18.209Z,14.60
2018-07-20T18:49:49.015Z,13.80
2018-07-20T18:52:19.676Z,14.27
2018-07-20T18:54:50.455Z,18.47
2018-07-20T18:57:21.186Z,17.17
2018-07-20T18:59:52.002Z,16.27
2018-07-20T19:02:22.826Z,16.33
2018-07-20T19:04:53.707Z,15.67
2018-07-20T19:07:24.776Z,16.17
2018-07-20T19:09:57.054Z,14.50
2018-07-20T19:12:27.789Z,15.53
2018-07-20T19:14:58.554Z,14.40
2018-07-20T19:17:29.494Z,14.80
2018-07-20T19:20:00.229Z,16.10
2018-07-20T19:22:30.869Z,16.13
2018-07-20T19:25:02.030Z,16.23
2018-07-20T19:27:32.780Z,15.77
2018-07-20T19:30:03.714Z,16.13
2018-07-20T19:32:34.572Z,16.33
2018-07-20T19:35:07.368Z,15.80
2018-07-20T19:37:38.136Z,17.77
2018-07-20T19:40:08.836Z,19.63
2018-07-20T19:42:39.952Z,19.57
2018-07-20T19:45:10.725Z,20.20
2018-07-20T19:47:41.458Z,19.77
2018-07-20T19:50:13.047Z,20.47
2018-07-20T19:52:44.070Z,20.50
2018-07-20T19:55:16.024Z,21.57
2018-07-20T19:57:50.889Z,21.90
2018-07-20T20:00:22.262Z,22.17
2018-07-20T20:02:53.067Z,22.67
2018-07-20T20:05:23.832Z,23.70
2018-07-20T20:07:54.773Z,23.83
2018-07-20T20:10:25.635Z,24.23
2018-07-20T20:12:56.434Z,26.83
2018-07-20T20:15:28.011Z,31.23
2018-07-20T20:17:58.905Z,32.23
2018-07-20T20:20:29.676Z,28.20
2018-07-20T20:23:00.641Z,27.07
2018-07-20T20:25:31.500Z,22.47
2018-07-20T20:28:02.179Z,19.10
2018-07-20T20:30:32.978Z,16.80
2018-07-20T20:33:03.931Z,16.00
2018-07-20T20:35:35.118Z,19.57
2018-07-20T20:38:05.840Z,20.23
2018-07-20T20:40:36.612Z,19.67
2018-07-20T20:43:07.375Z,24.20
2018-07-20T20:45:38.425Z,25.13
2018-07-20T20:48:09.108Z,25.87
2018-07-20T20:50:39.882Z,22.40
2018-07-20T20:53:10.934Z,19.00
2018-07-20T20:55:41.877Z,19.47
2018-07-20T20:58:12.938Z,18.87
2018-07-20T21:00:44.340Z,17.83
2018-07-20T21:03:15.122Z,16.67
2018-07-20T21:05:46.157Z,17.20
2018-07-20T21:08:16.894Z,16.57
2018-07-20T21:10:47.645Z,15.33
2018-07-20T21:13:18.525Z,16.20
2018-07-20T21:15:49.273Z,15.17
2018-07-20T21:18:19.974Z,15.20
2018-07-20T21:20:50.791Z,14.47
2018-07-20T21:23:32.102Z,15.90
2018-07-20T21:26:02.879Z,15.60
2018-07-20T21:28:33.754Z,14.73
2018-07-20T21:31:05.219Z,15.00
2018-07-20T21:33:36.521Z,14.67
2018-07-20T21:36:07.297Z,15.27
2018-07-20T21:38:38.340Z,13.93
2018-07-20T21:41:09.214Z,16.27
2018-07-20T21:43:40.162Z,15.37
2018-07-20T21:46:11.092Z,17.00
2018-07-20T21:48:41.991Z,15.53
2018-07-20T21:51:12.955Z,17.10
2018-07-20T21:53:43.761Z,14.63
2018-07-20T21:56:14.579Z,15.70
2018-07-20T21:58:48.645Z,15.07
2018-07-20T22:01:21.581Z,15.60
2018-07-20T22:03:52.609Z,19.23
2018-07-20T22:06:23.517Z,15.80
2018-07-20T22:08:54.279Z,15.87
2018-07-20T22:11:24.985Z,14.90
2018-07-20T22:13:55.756Z,15.67
2018-07-20T22:16:26.490Z,15.43
2018-07-20T22:18:57.246Z,15.70
2018-07-20T22:21:28.022Z,16.50
2018-07-20T22:23:58.758Z,17.33
2018-07-20T22:26:29.437Z,19.30
2018-07-20T22:29:00.325Z,20.40
2018-07-20T22:31:31.000Z,22.30
2018-07-20T22:34:01.871Z,21.57
2018-07-20T22:36:32.659Z,21.50
2018-07-20T22:39:03.570Z,23.53
2018-07-20T22:41:34.319Z,21.87
2018-07-20T22:44:05.500Z,21.77
2018-07-20T22:46:36.220Z,20.73
2018-07-20T22:49:07.087Z,18.70
2018-07-20T22:51:38.125Z,18.57
2018-07-20T22:54:08.880Z,19.00
2018-07-20T22:56:46.284Z,18.40
2018-07-20T22:59:17.262Z,17.60
2018-07-20T23:01:48.122Z,19.07
2018-07-20T23:04:19.080Z,18.83
2018-07-20T23:06:49.817Z,19.50
2018-07-20T23:09:20.550Z,20.37
2018-07-20T23:11:51.238Z,20.63
2018-07-20T23:14:22.101Z,20.43
2018-07-20T23:16:52.881Z,22.30
2018-07-20T23:19:23.554Z,22.30
2018-07-20T23:21:54.487Z,20.87
2018-07-20T23:24:25.274Z,20.53
2018-07-20T23:26:55.942Z,18.97
2018-07-20T23:29:26.769Z,19.53
2018-07-20T23:31:57.544Z,20.00
2018-07-20T23:34:28.325Z,20.00
2018-07-20T23:36:59.414Z,19.87
2018-07-20T23:39:30.322Z,19.70
2018-07-20T23:42:01.002Z,18.90
2018-07-20T23:44:31.840Z,18.70
2018-07-20T23:47:02.936Z,19.20
2018-07-20T23:49:33.592Z,19.17
2018-07-20T23:52:04.377Z,19.07
2018-07-20T23:54:35.208Z,19.27
2018-07-20T23:57:06.385Z,18.93
2018-07-20T23:59:37.196Z,18.23
